Rickmers Dalian — V7FS3 — position and weather

sailwx.info

Track history (hours):
 
Tides and Currents Weather Stations Pressure Air Temp Water Temp Dewpoint Dewpoint Depression Visibility Wind Speed Wind Dir Waves Ship Positions

Rickmers Dalian

Last reported at 2018-Apr-21 00:02 UTC. Time now 2018-Apr-22 06:53 UTC.
Position N 31°05' E 122°31'.

Length 193 m; beam 27.8 m; draft 11.2 m.

Type: Ship. MMSI: 538090156.

Date/timePositionNaut miles runAvg speedWind from/ knotsBaromVisibWave heightAir tempDewpointWater temp
2018-Apr-21 00:02N 31°05' E 122°31'0 0.0
2018-Apr-21 00:00N 31°05' E 122°31'712.1
2018-Apr-20 23:27N 31°05' E 122°23'614.3
2018-Apr-20 23:00N 31°08' E 122°16'714.5
2018-Apr-20 22:30N 31°12' E 122°09'714.7
2018-Apr-20 22:00N 31°15' E 122°01'914.8
2018-Apr-20 21:22N 31°17' E 121°50'1512.1
2018-Apr-20 20:07N 31°23' E 121°35'111.9
2018-Apr-20 20:00N 31°24' E 121°33'5 9.8
2018-Apr-20 19:29N 31°27' E 121°28'510.7
2018-Apr-20 18:59N 31°30' E 121°23'1 1.2
2018-Apr-20 18:30N 31°30' E 121°22'0 0.0
2018-Apr-20 18:00N 31°30' E 121°22'0 0.0
2018-Apr-20 17:18N 31°30' E 121°22'0 0.0
2018-Apr-20 16:57N 31°30' E 121°22'0 0.0
2018-Apr-20 16:30N 31°30' E 121°22'0 0.0
2018-Apr-20 15:39N 31°30' E 121°22'0 0.0
2018-Apr-20 15:30N 31°30' E 121°22'0 0.0
2018-Apr-20 15:00N 31°30' E 121°22'0 0.0
2018-Apr-20 14:09N 31°30' E 121°22'0 0.0
2018-Apr-20 14:00N 31°30' E 121°22'0 0.0
2018-Apr-20 13:30N 31°30' E 121°22'0 0.0
2018-Apr-20 13:00N 31°30' E 121°22'0 0.0
2018-Apr-20 12:12N 31°30' E 121°22'0 0.0
2018-Apr-20 12:00N 31°30' E 121°22'0 0.0
2018-Apr-20 11:30N 31°30' E 121°22'0 0.0
2018-Apr-20 11:00N 31°30' E 121°22'0 0.0
2018-Apr-20 10:30N 31°30' E 121°22'0 0.0
2018-Apr-20 10:00N 31°30' E 121°22'0 0.0
2018-Apr-20 09:30N 31°30' E 121°22'0 0.0
2018-Apr-20 08:57N 31°30' E 121°22'0 0.0
2018-Apr-20 08:30N 31°30' E 121°22'0 0.0
2018-Apr-20 08:00N 31°30' E 121°22'0 0.0
2018-Apr-20 07:27N 31°30' E 121°22'0 0.0
2018-Apr-20 07:00N 31°30' E 121°22'0 0.0
2018-Apr-20 06:30N 31°30' E 121°22'0 0.0
2018-Apr-20 05:54N 31°30' E 121°22'0 0.0
2018-Apr-20 05:24N 31°30' E 121°22'0 0.3
2018-Apr-20 04:57N 31°30' E 121°23'0 0.3
2018-Apr-20 04:30N 31°30' E 121°23'0 0.0
2018-Apr-20 04:00N 31°30' E 121°23'0 0.0
2018-Apr-20 03:24N 31°30' E 121°23'0 0.0
2018-Apr-20 03:00N 31°30' E 121°23'0 0.0
2018-Apr-20 02:30N 31°30' E 121°23'0 0.0
2018-Apr-20 02:00N 31°30' E 121°23'0 0.0
2018-Apr-20 01:30N 31°30' E 121°23'0 0.0
2018-Apr-20 01:00N 31°30' E 121°23'0 0.0
2018-Apr-20 00:24N 31°30' E 121°23'0 0.0
2018-Apr-19 23:54N 31°30' E 121°23'0 0.0
2018-Apr-19 23:24N 31°30' E 121°23'0 0.0
2018-Apr-19 23:00N 31°30' E 121°23'0 0.0
2018-Apr-19 22:30N 31°30' E 121°23'0 0.0
2018-Apr-19 22:00N 31°30' E 121°23'0 0.0
2018-Apr-19 21:30N 31°30' E 121°23'0 0.0
2018-Apr-19 21:00N 31°30' E 121°23'2 3.5
2018-Apr-19 20:30N 31°29' E 121°24'3 6.5
2018-Apr-19 20:00N 31°28' E 121°27'23 8.6
2018-Apr-19 17:20N 31°13' E 121°48'515.7
2018-Apr-19 17:00N 31°09' E 121°53'714.8
2018-Apr-19 16:30N 31°06' E 121°60'913.9
2018-Apr-19 15:52N 31°03' E 122°10'410.3
2018-Apr-19 15:30N 31°03' E 122°14'510.1
2018-Apr-19 15:00N 31°02' E 122°20'714.1
2018-Apr-19 14:30N 31°01' E 122°28'713.9
2018-Apr-19 14:00N 31°07' E 122°31'3 5.8
2018-Apr-19 13:25N 31°10' E 122°34'1 3.0
2018-Apr-19 12:59N 31°09' E 122°35'0 0.0
2018-Apr-19 12:29N 31°09' E 122°35'1 2.7
2018-Apr-19 11:57N 31°08' E 122°34'2 4.1
2018-Apr-19 11:30N 31°08' E 122°36'2 0.1
2018-Apr-18 02:26N 31°09' E 122°38'0 0.0
2018-Apr-17 14:05N 31°09' E 122°38'0 0.1
2018-Apr-17 13:53N 31°09' E 122°38'0 0.0
2018-Apr-15 12:41N 31°09' E 122°38'0 0.1
2018-Apr-15 12:23N 31°09' E 122°38'11 2.7
2018-Apr-15 08:16N 31°03' E 122°49'45411.5
2018-Apr-13 16:49N 24°19' E 118°53'613.5
2018-Apr-13 16:22N 24°15' E 118°48'513.3
2018-Apr-13 15:57N 24°12' E 118°43'613.4
2018-Apr-13 15:30N 24°09' E 118°38'713.3
2018-Apr-13 14:57N 24°05' E 118°31'713.1
2018-Apr-13 14:27N 23°59' E 118°28'713.4
2018-Apr-13 13:54N 23°54' E 118°21'713.8
2018-Apr-13 13:25N 23°50' E 118°16'614.1
2018-Apr-13 13:01N 23°45' E 118°12'714.6
2018-Apr-13 12:30N 23°39' E 118°07'714.4
2018-Apr-13 12:00N 23°34' E 118°02'714.9
2018-Apr-13 11:30N 23°29' E 117°56'714.8
2018-Apr-13 11:00N 23°23' E 117°51'814.4
2018-Apr-13 10:28N 23°18' E 117°45'714.1
2018-Apr-13 10:01N 23°12' E 117°42'713.4
2018-Apr-13 09:30N 23°07' E 117°37'713.1
2018-Apr-13 09:00N 23°01' E 117°33'713.5
2018-Apr-13 08:30N 22°55' E 117°31'3113.1
2018-Apr-13 06:08N 22°27' E 117°17'313.3
2018-Apr-13 05:56N 22°24' E 117°16'613.4
2018-Apr-13 05:30N 22°20' E 117°12'713.5
2018-Apr-13 05:00N 22°14' E 117°09'713.5
2018-Apr-13 04:29N 22°07' E 117°06'  
Track history (hours):
 
Tides and Currents Weather Stations Pressure Air Temp Water Temp Dewpoint Dewpoint Depression Visibility Wind Speed Wind Dir Waves Ship Positions

Rickmers Dalian

Last reported at 2018-Apr-21 00:02 UTC. Time now 2018-Apr-22 06:53 UTC.
Position N 31°05' E 122°31'.

Length 193 m; beam 27.8 m; draft 11.2 m.

Type: Ship. MMSI: 538090156.

Date/timePositionNaut miles runAvg speedWind from/ knotsBaromVisibWave heightAir tempDewpointWater temp
2018-Apr-21 00:02N 31°05' E 122°31'0 0.0
2018-Apr-21 00:00N 31°05' E 122°31'712.1
2018-Apr-20 23:27N 31°05' E 122°23'614.3
2018-Apr-20 23:00N 31°08' E 122°16'714.5
2018-Apr-20 22:30N 31°12' E 122°09'714.7
2018-Apr-20 22:00N 31°15' E 122°01'914.8
2018-Apr-20 21:22N 31°17' E 121°50'1512.1
2018-Apr-20 20:07N 31°23' E 121°35'111.9
2018-Apr-20 20:00N 31°24' E 121°33'5 9.8
2018-Apr-20 19:29N 31°27' E 121°28'510.7
2018-Apr-20 18:59N 31°30' E 121°23'1 1.2
2018-Apr-20 18:30N 31°30' E 121°22'0 0.0
2018-Apr-20 18:00N 31°30' E 121°22'0 0.0
2018-Apr-20 17:18N 31°30' E 121°22'0 0.0
2018-Apr-20 16:57N 31°30' E 121°22'0 0.0
2018-Apr-20 16:30N 31°30' E 121°22'0 0.0
2018-Apr-20 15:39N 31°30' E 121°22'0 0.0
2018-Apr-20 15:30N 31°30' E 121°22'0 0.0
2018-Apr-20 15:00N 31°30' E 121°22'0 0.0
2018-Apr-20 14:09N 31°30' E 121°22'0 0.0
2018-Apr-20 14:00N 31°30' E 121°22'0 0.0
2018-Apr-20 13:30N 31°30' E 121°22'0 0.0
2018-Apr-20 13:00N 31°30' E 121°22'0 0.0
2018-Apr-20 12:12N 31°30' E 121°22'0 0.0
2018-Apr-20 12:00N 31°30' E 121°22'0 0.0
2018-Apr-20 11:30N 31°30' E 121°22'0 0.0
2018-Apr-20 11:00N 31°30' E 121°22'0 0.0
2018-Apr-20 10:30N 31°30' E 121°22'0 0.0
2018-Apr-20 10:00N 31°30' E 121°22'0 0.0
2018-Apr-20 09:30N 31°30' E 121°22'0 0.0
2018-Apr-20 08:57N 31°30' E 121°22'0 0.0
2018-Apr-20 08:30N 31°30' E 121°22'0 0.0
2018-Apr-20 08:00N 31°30' E 121°22'0 0.0
2018-Apr-20 07:27N 31°30' E 121°22'0 0.0
2018-Apr-20 07:00N 31°30' E 121°22'0 0.0
2018-Apr-20 06:30N 31°30' E 121°22'0 0.0
2018-Apr-20 05:54N 31°30' E 121°22'0 0.0
2018-Apr-20 05:24N 31°30' E 121°22'0 0.3
2018-Apr-20 04:57N 31°30' E 121°23'0 0.3
2018-Apr-20 04:30N 31°30' E 121°23'0 0.0
2018-Apr-20 04:00N 31°30' E 121°23'0 0.0
2018-Apr-20 03:24N 31°30' E 121°23'0 0.0
2018-Apr-20 03:00N 31°30' E 121°23'0 0.0
2018-Apr-20 02:30N 31°30' E 121°23'0 0.0
2018-Apr-20 02:00N 31°30' E 121°23'0 0.0
2018-Apr-20 01:30N 31°30' E 121°23'0 0.0
2018-Apr-20 01:00N 31°30' E 121°23'0 0.0
2018-Apr-20 00:24N 31°30' E 121°23'0 0.0
2018-Apr-19 23:54N 31°30' E 121°23'0 0.0
2018-Apr-19 23:24N 31°30' E 121°23'0 0.0
2018-Apr-19 23:00N 31°30' E 121°23'0 0.0
2018-Apr-19 22:30N 31°30' E 121°23'0 0.0
2018-Apr-19 22:00N 31°30' E 121°23'0 0.0
2018-Apr-19 21:30N 31°30' E 121°23'0 0.0
2018-Apr-19 21:00N 31°30' E 121°23'2 3.5
2018-Apr-19 20:30N 31°29' E 121°24'3 6.5
2018-Apr-19 20:00N 31°28' E 121°27'23 8.6
2018-Apr-19 17:20N 31°13' E 121°48'515.7
2018-Apr-19 17:00N 31°09' E 121°53'714.8
2018-Apr-19 16:30N 31°06' E 121°60'913.9
2018-Apr-19 15:52N 31°03' E 122°10'410.3
2018-Apr-19 15:30N 31°03' E 122°14'510.1
2018-Apr-19 15:00N 31°02' E 122°20'714.1
2018-Apr-19 14:30N 31°01' E 122°28'713.9
2018-Apr-19 14:00N 31°07' E 122°31'3 5.8
2018-Apr-19 13:25N 31°10' E 122°34'1 3.0
2018-Apr-19 12:59N 31°09' E 122°35'0 0.0
2018-Apr-19 12:29N 31°09' E 122°35'1 2.7
2018-Apr-19 11:57N 31°08' E 122°34'2 4.1
2018-Apr-19 11:30N 31°08' E 122°36'2 0.1
2018-Apr-18 02:26N 31°09' E 122°38'0 0.0
2018-Apr-17 14:05N 31°09' E 122°38'0 0.1
2018-Apr-17 13:53N 31°09' E 122°38'0 0.0
2018-Apr-15 12:41N 31°09' E 122°38'0 0.1
2018-Apr-15 12:23N 31°09' E 122°38'11 2.7
2018-Apr-15 08:16N 31°03' E 122°49'45411.5
2018-Apr-13 16:49N 24°19' E 118°53'613.5
2018-Apr-13 16:22N 24°15' E 118°48'513.3
2018-Apr-13 15:57N 24°12' E 118°43'613.4
2018-Apr-13 15:30N 24°09' E 118°38'713.3
2018-Apr-13 14:57N 24°05' E 118°31'713.1
2018-Apr-13 14:27N 23°59' E 118°28'713.4
2018-Apr-13 13:54N 23°54' E 118°21'713.8
2018-Apr-13 13:25N 23°50' E 118°16'614.1
2018-Apr-13 13:01N 23°45' E 118°12'714.6
2018-Apr-13 12:30N 23°39' E 118°07'714.4
2018-Apr-13 12:00N 23°34' E 118°02'714.9
2018-Apr-13 11:30N 23°29' E 117°56'714.8
2018-Apr-13 11:00N 23°23' E 117°51'814.4
2018-Apr-13 10:28N 23°18' E 117°45'714.1
2018-Apr-13 10:01N 23°12' E 117°42'713.4
2018-Apr-13 09:30N 23°07' E 117°37'713.1
2018-Apr-13 09:00N 23°01' E 117°33'713.5
2018-Apr-13 08:30N 22°55' E 117°31'3113.1
2018-Apr-13 06:08N 22°27' E 117°17'313.3
2018-Apr-13 05:56N 22°24' E 117°16'613.4
2018-Apr-13 05:30N 22°20' E 117°12'713.5
2018-Apr-13 05:00N 22°14' E 117°09'713.5
2018-Apr-13 04:29N 22°07' E 117°06'  

Dump ship's entire track history